Date,TemperatureHighF,TemperatureAvgF,TemperatureLowF,DewpointHighF,DewpointAvgF,DewpointLowF,HumidityHigh,HumidityAvg,HumidityLow,PressureMaxIn,PressureMinIn,WindSpeedMaxMPH,WindSpeedAvgMPH,GustSpeedMaxMPH,PrecipitationSumIn
2013-1-1,40,38,34,38,36,33,95,95,94,30.25,30.07,9,1,10,0.02
2013-1-2,36,33,29,33,30,26,94,89,84,30.33,30.24,9,1,9,0.00
2013-1-3,43,33,27,32,28,24,92,82,61,30.49,30.32,8,0,8,0.01
2013-1-4,44,35,29,32,28,26,93,77,52,30.54,30.39,10,0,10,0.00
2013-1-5,51,40,32,36,32,26,83,72,56,30.40,30.23,15,1,15,0.00
2013-1-6,51,41,34,36,32,26,91,72,49,30.41,30.26,12,1,13,0.00
2013-1-7,50,38,30,32,28,24,83,68,48,30.44,30.20,11,1,12,0.00
2013-1-8,52,42,32,42,35,27,90,74,60,30.25,30.12,10,1,10,0.27
2013-1-9,55,50,45,50,47,43,95,91,80,30.34,30.20,17,2,17,0.43
2013-1-10,58,54,49,57,52,46,96,94,85,30.22,29.84,18,2,18,0.12
2013-1-11,66,54,45,51,47,42,92,79,54,29.97,29.84,14,1,18,0.00
2013-1-12,58,53,38,57,50,36,96,92,79,29.90,29.66,18,2,19,6.32
2013-1-13,40,35,27,36,31,20,100,84,70,30.37,29.88,16,2,17,0.02
2013-1-14,38,28,22,24,19,16,78,69,56,30.49,30.34,16,2,17,0.00
2013-1-15,31,28,25,28,22,16,91,80,65,30.42,30.18,15,1,17,0.00
2013-1-16,43,34,26,29,25,19,92,73,40,30.27,30.13,10,0,10,0.07
2013-1-17,53,40,32,38,30,25,78,66,45,30.53,30.22,12,2,13,0.00
2013-1-18,54,41,30,36,30,26,87,66,43,30.57,30.31,12,1,12,0.00
2013-1-19,63,49,38,43,35,27,70,58,45,30.31,30.13,14,1,16,0.00
2013-1-20,59,48,40,39,36,32,84,64,42,30.29,30.15,13,1,14,0.00
2013-1-21,48,39,31,34,22,14,72,52,35,30.39,30.19,18,3,19,0.00
2013-1-22,40,32,27,24,21,17,73,62,51,30.45,30.32,14,2,14,0.00
2013-1-23,57,42,29,41,32,22,78,68,50,30.35,30.18,9,1,9,0.00
2013-1-24,48,40,31,42,28,20,82,63,47,30.40,30.21,21,3,21,0.00
2013-1-25,46,37,31,39,33,23,92,84,73,30.28,30.15,9,1,11,0.00
2013-1-26,50,43,35,37,33,29,91,69,45,30.34,30.23,15,2,16,0.00
2013-1-27,58,50,44,55,45,34,93,84,65,30.24,30.03,10,2,11,0.01
2013-1-28,67,63,58,63,60,55,94,90,84,30.06,29.91,20,1,20,0.00
2013-1-29,67,63,51,65,60,49,95,90,82,29.91,29.46,22,5,24,1.67
2013-1-30,53,42,33,49,35,26,93,77,62,30.10,29.50,28,4,28,0.01
2013-1-31,54,39,28,36,27,11,86,65,39,30.41,30.08,15,1,15,0.00